aviador You're here:

K14Y Decoded Metar

in MN, USA
Report Time2017-11-20 05:32:00
UTC Time2017-11-20 05:49:05
Flight Rules vfr VFR
Wind170° at 04 kt
W.Rank170° ranks 16
Current wind is below 170° avg. (7.8)
Visibility9999 m
Phenomena:N/A
Clouds:N/A
Expected CloudBase > 1,200 ft AGL from Temp-Dew spread
CeilingNone
Temp-2°C (ISA -14)
Dew Point-5°C (80% RH)
AAT-6.0°C
QNH1007 hPa
Density Alt-154 ft
Elevation1,332 ft
Report Wrong Elevation
Raw Report
METAR K14Y 200532Z AUTO 17004KT 7SM CLR M02/M05 A2974 RMK AO2=

Extra information for K14Y:More info

Metar Taf Metar & Taf Last 4 Metars F.Rules Stats Wind Profile Meteogram Temp Stats Metar ALERT Operation Metar Decoded Social comments

AIRNAV info for K14Y